sensor_id;sensor_type;location;lat;lon;timestamp;P1;durP1;ratioP1;P2;durP2;ratioP2
61393;SDS011;48555;50.952;-0.120;2023-05-07T00:01:11;17.25;;;9.82;;
61393;SDS011;48555;50.952;-0.120;2023-05-07T00:03:36;22.98;;;10.48;;
61393;SDS011;48555;50.952;-0.120;2023-05-07T00:06:02;19.42;;;10.57;;
61393;SDS011;48555;50.952;-0.120;2023-05-07T00:08:28;20.63;;;10.43;;
61393;SDS011;48555;50.952;-0.120;2023-05-07T00:10:53;15.20;;;9.88;;
61393;SDS011;48555;50.952;-0.120;2023-05-07T00:13:19;18.75;;;10.13;;
61393;SDS011;48555;50.952;-0.120;2023-05-07T00:15:44;22.50;;;10.73;;
61393;SDS011;48555;50.952;-0.120;2023-05-07T00:18:10;16.17;;;9.35;;
61393;SDS011;48555;50.952;-0.120;2023-05-07T00:20:35;16.75;;;9.25;;
61393;SDS011;48555;50.952;-0.120;2023-05-07T00:23:01;18.77;;;10.52;;
61393;SDS011;48555;50.952;-0.120;2023-05-07T00:25:26;20.25;;;10.68;;
61393;SDS011;48555;50.952;-0.120;2023-05-07T00:27:52;24.00;;;12.38;;
61393;SDS011;48555;50.952;-0.120;2023-05-07T00:30:17;18.65;;;11.00;;
61393;SDS011;48555;50.952;-0.120;2023-05-07T00:32:42;18.02;;;10.85;;
61393;SDS011;48555;50.952;-0.120;2023-05-07T00:35:10;17.25;;;9.95;;
61393;SDS011;48555;50.952;-0.120;2023-05-07T00:37:36;19.63;;;11.27;;
61393;SDS011;48555;50.952;-0.120;2023-05-07T00:40:01;18.65;;;10.50;;
61393;SDS011;48555;50.952;-0.120;2023-05-07T00:42:29;19.45;;;10.90;;
61393;SDS011;48555;50.952;-0.120;2023-05-07T00:44:57;19.75;;;10.52;;
61393;SDS011;48555;50.952;-0.120;2023-05-07T00:47:22;18.38;;;10.82;;
61393;SDS011;48555;50.952;-0.120;2023-05-07T00:49:48;20.23;;;10.00;;
61393;SDS011;48555;50.952;-0.120;2023-05-07T00:52:16;19.30;;;10.07;;
61393;SDS011;48555;50.952;-0.120;2023-05-07T00:54:42;20.20;;;9.43;;
61393;SDS011;48555;50.952;-0.120;2023-05-07T00:57:08;17.90;;;9.55;;
61393;SDS011;48555;50.952;-0.120;2023-05-07T00:59:36;17.75;;;10.68;;
61393;SDS011;48555;50.952;-0.120;2023-05-07T01:02:01;23.02;;;10.25;;
61393;SDS011;48555;50.952;-0.120;2023-05-07T01:04:27;15.00;;;8.52;;
61393;SDS011;48555;50.952;-0.120;2023-05-07T01:06:53;18.15;;;8.63;;
61393;SDS011;48555;50.952;-0.120;2023-05-07T01:09:21;15.20;;;8.13;;
61393;SDS011;48555;50.952;-0.120;2023-05-07T01:11:48;16.13;;;6.75;;
61393;SDS011;48555;50.952;-0.120;2023-05-07T01:14:15;10.35;;;6.60;;
61393;SDS011;48555;50.952;-0.120;2023-05-07T01:16:41;8.35;;;5.60;;
61393;SDS011;48555;50.952;-0.120;2023-05-07T01:19:07;8.80;;;5.55;;
61393;SDS011;48555;50.952;-0.120;2023-05-07T01:21:33;8.20;;;5.18;;
61393;SDS011;48555;50.952;-0.120;2023-05-07T01:24:00;9.07;;;5.35;;
61393;SDS011;48555;50.952;-0.120;2023-05-07T01:26:25;8.48;;;5.70;;
61393;SDS011;48555;50.952;-0.120;2023-05-07T01:28:51;9.07;;;6.05;;
61393;SDS011;48555;50.952;-0.120;2023-05-07T01:31:16;10.90;;;6.50;;
61393;SDS011;48555;50.952;-0.120;2023-05-07T01:33:42;10.45;;;6.32;;
61393;SDS011;48555;50.952;-0.120;2023-05-07T01:36:10;10.23;;;6.82;;
61393;SDS011;48555;50.952;-0.120;2023-05-07T01:38:37;8.93;;;6.22;;
61393;SDS011;48555;50.952;-0.120;2023-05-07T01:41:05;9.27;;;5.78;;
61393;SDS011;48555;50.952;-0.120;2023-05-07T01:43:31;9.25;;;6.05;;
61393;SDS011;48555;50.952;-0.120;2023-05-07T01:45:57;7.85;;;5.47;;
61393;SDS011;48555;50.952;-0.120;2023-05-07T01:48:24;9.65;;;5.93;;
61393;SDS011;48555;50.952;-0.120;2023-05-07T01:50:50;7.88;;;5.35;;
61393;SDS011;48555;50.952;-0.120;2023-05-07T01:53:16;8.48;;;5.18;;
61393;SDS011;48555;50.952;-0.120;2023-05-07T01:55:41;8.38;;;5.25;;
61393;SDS011;48555;50.952;-0.120;2023-05-07T01:58:07;8.68;;;4.97;;
61393;SDS011;48555;50.952;-0.120;2023-05-07T02:00:32;7.63;;;5.05;;
61393;SDS011;48555;50.952;-0.120;2023-05-07T02:02:58;7.28;;;4.45;;
61393;SDS011;48555;50.952;-0.120;2023-05-07T02:05:23;8.82;;;5.50;;
61393;SDS011;48555;50.952;-0.120;2023-05-07T02:07:49;8.45;;;5.85;;
61393;SDS011;48555;50.952;-0.120;2023-05-07T02:10:14;8.70;;;5.50;;
61393;SDS011;48555;50.952;-0.120;2023-05-07T02:12:40;8.07;;;5.35;;
61393;SDS011;48555;50.952;-0.120;2023-05-07T02:15:05;7.55;;;5.13;;
61393;SDS011;48555;50.952;-0.120;2023-05-07T02:17:31;9.20;;;5.65;;
61393;SDS011;48555;50.952;-0.120;2023-05-07T02:19:59;7.97;;;5.15;;
61393;SDS011;48555;50.952;-0.120;2023-05-07T02:22:24;7.50;;;5.00;;
61393;SDS011;48555;50.952;-0.120;2023-05-07T02:24:50;6.65;;;5.18;;
61393;SDS011;48555;50.952;-0.120;2023-05-07T02:27:16;7.95;;;5.22;;
61393;SDS011;48555;50.952;-0.120;2023-05-07T02:29:41;7.43;;;4.97;;
61393;SDS011;48555;50.952;-0.120;2023-05-07T02:32:06;7.65;;;5.05;;
61393;SDS011;48555;50.952;-0.120;2023-05-07T02:34:32;7.95;;;4.78;;
61393;SDS011;48555;50.952;-0.120;2023-05-07T02:36:57;7.53;;;5.50;;
61393;SDS011;48555;50.952;-0.120;2023-05-07T02:39:22;8.00;;;5.28;;
61393;SDS011;48555;50.952;-0.120;2023-05-07T02:41:48;8.63;;;5.80;;
61393;SDS011;48555;50.952;-0.120;2023-05-07T02:44:13;7.57;;;4.88;;
61393;SDS011;48555;50.952;-0.120;2023-05-07T02:46:39;9.02;;;5.70;;
61393;SDS011;48555;50.952;-0.120;2023-05-07T02:49:04;7.25;;;5.15;;
61393;SDS011;48555;50.952;-0.120;2023-05-07T02:51:30;8.43;;;5.68;;
61393;SDS011;48555;50.952;-0.120;2023-05-07T02:53:55;8.50;;;5.38;;
61393;SDS011;48555;50.952;-0.120;2023-05-07T02:56:21;8.27;;;5.72;;
61393;SDS011;48555;50.952;-0.120;2023-05-07T02:58:46;8.65;;;5.75;;
61393;SDS011;48555;50.952;-0.120;2023-05-07T03:01:12;9.95;;;5.80;;
61393;SDS011;48555;50.952;-0.120;2023-05-07T03:03:38;9.57;;;5.95;;
61393;SDS011;48555;50.952;-0.120;2023-05-07T03:06:04;8.27;;;6.05;;
61393;SDS011;48555;50.952;-0.120;2023-05-07T03:08:30;12.88;;;5.65;;
61393;SDS011;48555;50.952;-0.120;2023-05-07T03:10:55;8.15;;;5.90;;
61393;SDS011;48555;50.952;-0.120;2023-05-07T03:13:21;10.13;;;6.35;;
61393;SDS011;48555;50.952;-0.120;2023-05-07T03:15:46;10.60;;;6.55;;
61393;SDS011;48555;50.952;-0.120;2023-05-07T03:18:12;9.13;;;5.88;;
61393;SDS011;48555;50.952;-0.120;2023-05-07T03:20:37;11.85;;;5.82;;
61393;SDS011;48555;50.952;-0.120;2023-05-07T03:23:02;9.45;;;6.35;;
61393;SDS011;48555;50.952;-0.120;2023-05-07T03:25:28;9.95;;;6.68;;
61393;SDS011;48555;50.952;-0.120;2023-05-07T03:27:55;8.85;;;6.43;;
61393;SDS011;48555;50.952;-0.120;2023-05-07T03:30:21;11.15;;;6.80;;
61393;SDS011;48555;50.952;-0.120;2023-05-07T03:32:46;8.88;;;6.38;;
61393;SDS011;48555;50.952;-0.120;2023-05-07T03:35:11;26.15;;;6.60;;
61393;SDS011;48555;50.952;-0.120;2023-05-07T03:37:37;30.10;;;6.25;;
61393;SDS011;48555;50.952;-0.120;2023-05-07T03:40:03;14.77;;;6.20;;
61393;SDS011;48555;50.952;-0.120;2023-05-07T03:42:29;28.83;;;7.40;;
61393;SDS011;48555;50.952;-0.120;2023-05-07T03:44:55;13.10;;;7.13;;
61393;SDS011;48555;50.952;-0.120;2023-05-07T03:47:20;15.35;;;7.38;;
61393;SDS011;48555;50.952;-0.120;2023-05-07T03:49:46;16.27;;;7.47;;
61393;SDS011;48555;50.952;-0.120;2023-05-07T03:52:11;13.43;;;7.38;;
61393;SDS011;48555;50.952;-0.120;2023-05-07T03:54:36;21.70;;;7.60;;
61393;SDS011;48555;50.952;-0.120;2023-05-07T03:57:02;39.95;;;8.02;;
61393;SDS011;48555;50.952;-0.120;2023-05-07T03:59:27;34.10;;;8.32;;
61393;SDS011;48555;50.952;-0.120;2023-05-07T04:01:52;22.92;;;8.13;;
61393;SDS011;48555;50.952;-0.120;2023-05-07T04:04:18;35.28;;;7.72;;
61393;SDS011;48555;50.952;-0.120;2023-05-07T04:06:43;21.42;;;7.53;;
61393;SDS011;48555;50.952;-0.120;2023-05-07T04:09:09;25.25;;;7.60;;
61393;SDS011;48555;50.952;-0.120;2023-05-07T04:11:35;60.35;;;8.07;;
61393;SDS011;48555;50.952;-0.120;2023-05-07T04:14:00;44.90;;;8.02;;
61393;SDS011;48555;50.952;-0.120;2023-05-07T04:16:26;18.60;;;7.50;;
61393;SDS011;48555;50.952;-0.120;2023-05-07T04:18:51;60.25;;;8.25;;
61393;SDS011;48555;50.952;-0.120;2023-05-07T04:21:17;45.88;;;7.93;;
61393;SDS011;48555;50.952;-0.120;2023-05-07T04:23:43;37.92;;;7.65;;
61393;SDS011;48555;50.952;-0.120;2023-05-07T04:26:09;31.95;;;7.88;;
61393;SDS011;48555;50.952;-0.120;2023-05-07T04:28:34;22.55;;;7.22;;
61393;SDS011;48555;50.952;-0.120;2023-05-07T04:31:01;84.93;;;9.35;;
61393;SDS011;48555;50.952;-0.120;2023-05-07T04:33:26;105.03;;;10.20;;
61393;SDS011;48555;50.952;-0.120;2023-05-07T04:35:52;25.50;;;8.88;;
61393;SDS011;48555;50.952;-0.120;2023-05-07T04:38:17;40.75;;;8.98;;
61393;SDS011;48555;50.952;-0.120;2023-05-07T04:40:43;46.45;;;8.57;;
61393;SDS011;48555;50.952;-0.120;2023-05-07T04:43:09;82.72;;;9.98;;
61393;SDS011;48555;50.952;-0.120;2023-05-07T04:45:35;42.35;;;9.23;;
61393;SDS011;48555;50.952;-0.120;2023-05-07T04:48:01;90.57;;;10.63;;
61393;SDS011;48555;50.952;-0.120;2023-05-07T04:50:26;77.32;;;8.80;;
61393;SDS011;48555;50.952;-0.120;2023-05-07T04:52:52;100.15;;;9.80;;
61393;SDS011;48555;50.952;-0.120;2023-05-07T04:55:17;52.25;;;8.63;;
61393;SDS011;48555;50.952;-0.120;2023-05-07T04:57:43;66.18;;;9.02;;
61393;SDS011;48555;50.952;-0.120;2023-05-07T05:00:08;35.03;;;8.13;;
61393;SDS011;48555;50.952;-0.120;2023-05-07T05:02:34;24.65;;;7.22;;
61393;SDS011;48555;50.952;-0.120;2023-05-07T05:05:00;18.92;;;7.53;;
61393;SDS011;48555;50.952;-0.120;2023-05-07T05:07:27;33.80;;;8.98;;
61393;SDS011;48555;50.952;-0.120;2023-05-07T05:09:53;20.17;;;7.85;;
61393;SDS011;48555;50.952;-0.120;2023-05-07T05:12:18;29.23;;;7.72;;
61393;SDS011;48555;50.952;-0.120;2023-05-07T05:14:44;16.13;;;8.02;;
61393;SDS011;48555;50.952;-0.120;2023-05-07T05:17:09;16.00;;;9.20;;
61393;SDS011;48555;50.952;-0.120;2023-05-07T05:19:35;20.10;;;8.85;;
61393;SDS011;48555;50.952;-0.120;2023-05-07T05:22:00;19.45;;;9.15;;
61393;SDS011;48555;50.952;-0.120;2023-05-07T05:24:26;29.85;;;9.43;;
61393;SDS011;48555;50.952;-0.120;2023-05-07T05:26:53;22.80;;;9.63;;
61393;SDS011;48555;50.952;-0.120;2023-05-07T05:29:18;16.45;;;8.20;;
61393;SDS011;48555;50.952;-0.120;2023-05-07T05:31:44;19.92;;;9.05;;
61393;SDS011;48555;50.952;-0.120;2023-05-07T05:34:09;14.77;;;8.15;;
61393;SDS011;48555;50.952;-0.120;2023-05-07T05:36:34;15.55;;;8.35;;
61393;SDS011;48555;50.952;-0.120;2023-05-07T05:39:00;16.85;;;8.38;;
61393;SDS011;48555;50.952;-0.120;2023-05-07T05:41:25;17.77;;;8.77;;
61393;SDS011;48555;50.952;-0.120;2023-05-07T05:43:50;12.57;;;7.43;;
61393;SDS011;48555;50.952;-0.120;2023-05-07T05:46:15;17.15;;;7.90;;
61393;SDS011;48555;50.952;-0.120;2023-05-07T05:48:41;18.73;;;8.38;;
61393;SDS011;48555;50.952;-0.120;2023-05-07T05:51:06;15.80;;;8.40;;
61393;SDS011;48555;50.952;-0.120;2023-05-07T05:53:32;17.15;;;8.27;;
61393;SDS011;48555;50.952;-0.120;2023-05-07T05:55:57;16.77;;;8.30;;
61393;SDS011;48555;50.952;-0.120;2023-05-07T05:58:22;17.15;;;8.50;;
61393;SDS011;48555;50.952;-0.120;2023-05-07T06:00:48;17.92;;;8.95;;
61393;SDS011;48555;50.952;-0.120;2023-05-07T06:03:13;14.65;;;8.43;;
61393;SDS011;48555;50.952;-0.120;2023-05-07T06:05:39;15.98;;;8.52;;
61393;SDS011;48555;50.952;-0.120;2023-05-07T06:08:04;19.05;;;8.65;;
61393;SDS011;48555;50.952;-0.120;2023-05-07T06:10:29;16.92;;;8.43;;
61393;SDS011;48555;50.952;-0.120;2023-05-07T06:12:55;16.13;;;9.07;;
61393;SDS011;48555;50.952;-0.120;2023-05-07T06:15:21;17.30;;;9.50;;
61393;SDS011;48555;50.952;-0.120;2023-05-07T06:17:46;16.80;;;8.73;;
61393;SDS011;48555;50.952;-0.120;2023-05-07T06:20:11;17.98;;;9.40;;
61393;SDS011;48555;50.952;-0.120;2023-05-07T06:22:37;17.30;;;9.20;;
61393;SDS011;48555;50.952;-0.120;2023-05-07T06:25:02;18.13;;;8.27;;
61393;SDS011;48555;50.952;-0.120;2023-05-07T06:27:27;16.33;;;9.13;;
61393;SDS011;48555;50.952;-0.120;2023-05-07T06:29:53;14.65;;;8.75;;
61393;SDS011;48555;50.952;-0.120;2023-05-07T06:32:18;15.13;;;8.43;;
61393;SDS011;48555;50.952;-0.120;2023-05-07T06:34:44;14.05;;;7.82;;
61393;SDS011;48555;50.952;-0.120;2023-05-07T06:37:09;19.92;;;8.88;;
61393;SDS011;48555;50.952;-0.120;2023-05-07T06:39:35;18.70;;;8.55;;
61393;SDS011;48555;50.952;-0.120;2023-05-07T06:42:00;14.35;;;7.95;;
61393;SDS011;48555;50.952;-0.120;2023-05-07T06:44:26;11.93;;;7.22;;
61393;SDS011;48555;50.952;-0.120;2023-05-07T06:46:52;11.63;;;6.72;;
61393;SDS011;48555;50.952;-0.120;2023-05-07T06:49:17;12.55;;;7.22;;
61393;SDS011;48555;50.952;-0.120;2023-05-07T06:51:43;13.70;;;8.00;;
61393;SDS011;48555;50.952;-0.120;2023-05-07T06:54:08;13.07;;;7.78;;
61393;SDS011;48555;50.952;-0.120;2023-05-07T06:56:33;13.48;;;7.85;;
61393;SDS011;48555;50.952;-0.120;2023-05-07T06:59:00;12.32;;;6.65;;
61393;SDS011;48555;50.952;-0.120;2023-05-07T07:01:25;14.40;;;7.63;;
61393;SDS011;48555;50.952;-0.120;2023-05-07T07:03:51;12.25;;;7.03;;
61393;SDS011;48555;50.952;-0.120;2023-05-07T07:06:16;12.18;;;6.80;;
61393;SDS011;48555;50.952;-0.120;2023-05-07T07:08:42;9.90;;;5.88;;
61393;SDS011;48555;50.952;-0.120;2023-05-07T07:11:08;11.55;;;6.95;;
61393;SDS011;48555;50.952;-0.120;2023-05-07T07:13:33;12.30;;;6.93;;
61393;SDS011;48555;50.952;-0.120;2023-05-07T07:15:59;12.95;;;6.80;;
61393;SDS011;48555;50.952;-0.120;2023-05-07T07:18:25;9.43;;;5.82;;
61393;SDS011;48555;50.952;-0.120;2023-05-07T07:20:50;10.13;;;6.43;;
61393;SDS011;48555;50.952;-0.120;2023-05-07T07:23:15;9.10;;;5.70;;
61393;SDS011;48555;50.952;-0.120;2023-05-07T07:25:41;11.02;;;5.43;;
61393;SDS011;48555;50.952;-0.120;2023-05-07T07:28:06;8.90;;;5.50;;
61393;SDS011;48555;50.952;-0.120;2023-05-07T07:30:32;8.32;;;5.40;;
61393;SDS011;48555;50.952;-0.120;2023-05-07T07:32:57;9.13;;;5.50;;
61393;SDS011;48555;50.952;-0.120;2023-05-07T07:35:27;9.13;;;5.25;;
61393;SDS011;48555;50.952;-0.120;2023-05-07T07:37:53;9.68;;;5.18;;
61393;SDS011;48555;50.952;-0.120;2023-05-07T07:40:19;9.90;;;5.55;;
61393;SDS011;48555;50.952;-0.120;2023-05-07T07:42:44;9.27;;;5.22;;
61393;SDS011;48555;50.952;-0.120;2023-05-07T07:45:10;8.23;;;4.90;;
61393;SDS011;48555;50.952;-0.120;2023-05-07T07:47:35;8.05;;;4.90;;
61393;SDS011;48555;50.952;-0.120;2023-05-07T07:50:00;8.20;;;4.90;;
61393;SDS011;48555;50.952;-0.120;2023-05-07T07:52:26;9.00;;;5.20;;
61393;SDS011;48555;50.952;-0.120;2023-05-07T07:54:51;8.35;;;4.80;;
61393;SDS011;48555;50.952;-0.120;2023-05-07T07:57:16;7.68;;;4.75;;
61393;SDS011;48555;50.952;-0.120;2023-05-07T07:59:42;8.25;;;5.03;;
61393;SDS011;48555;50.952;-0.120;2023-05-07T08:02:08;8.02;;;4.75;;
61393;SDS011;48555;50.952;-0.120;2023-05-07T08:04:33;10.98;;;6.40;;
61393;SDS011;48555;50.952;-0.120;2023-05-07T08:07:00;10.48;;;6.43;;
61393;SDS011;48555;50.952;-0.120;2023-05-07T08:09:25;9.40;;;6.50;;
61393;SDS011;48555;50.952;-0.120;2023-05-07T08:11:50;10.85;;;7.30;;
61393;SDS011;48555;50.952;-0.120;2023-05-07T08:14:16;10.02;;;7.28;;
61393;SDS011;48555;50.952;-0.120;2023-05-07T08:16:42;12.90;;;8.00;;
61393;SDS011;48555;50.952;-0.120;2023-05-07T08:19:07;10.35;;;7.20;;
61393;SDS011;48555;50.952;-0.120;2023-05-07T08:21:33;12.32;;;7.60;;
61393;SDS011;48555;50.952;-0.120;2023-05-07T08:23:59;10.90;;;7.80;;
61393;SDS011;48555;50.952;-0.120;2023-05-07T08:26:24;10.40;;;7.85;;
61393;SDS011;48555;50.952;-0.120;2023-05-07T08:28:50;10.68;;;7.80;;
61393;SDS011;48555;50.952;-0.120;2023-05-07T08:31:15;12.05;;;7.97;;
61393;SDS011;48555;50.952;-0.120;2023-05-07T08:33:41;15.85;;;8.48;;
61393;SDS011;48555;50.952;-0.120;2023-05-07T08:36:06;10.68;;;8.45;;
61393;SDS011;48555;50.952;-0.120;2023-05-07T08:38:31;11.85;;;8.50;;
61393;SDS011;48555;50.952;-0.120;2023-05-07T08:40:57;11.38;;;8.75;;
61393;SDS011;48555;50.952;-0.120;2023-05-07T08:43:22;11.45;;;8.60;;
61393;SDS011;48555;50.952;-0.120;2023-05-07T08:45:53;9.82;;;8.32;;
61393;SDS011;48555;50.952;-0.120;2023-05-07T08:48:22;10.77;;;7.53;;
61393;SDS011;48555;50.952;-0.120;2023-05-07T08:50:50;10.82;;;8.35;;
61393;SDS011;48555;50.952;-0.120;2023-05-07T08:53:16;9.43;;;7.45;;
61393;SDS011;48555;50.952;-0.120;2023-05-07T08:55:42;9.70;;;8.15;;
61393;SDS011;48555;50.952;-0.120;2023-05-07T08:58:08;10.30;;;7.70;;
61393;SDS011;48555;50.952;-0.120;2023-05-07T09:00:33;10.05;;;7.93;;
61393;SDS011;48555;50.952;-0.120;2023-05-07T09:03:01;9.80;;;7.55;;
61393;SDS011;48555;50.952;-0.120;2023-05-07T09:05:26;10.05;;;7.43;;
61393;SDS011;48555;50.952;-0.120;2023-05-07T09:07:52;9.30;;;7.50;;
61393;SDS011;48555;50.952;-0.120;2023-05-07T09:10:17;8.68;;;6.93;;
61393;SDS011;48555;50.952;-0.120;2023-05-07T09:12:42;9.50;;;6.70;;
61393;SDS011;48555;50.952;-0.120;2023-05-07T09:15:08;9.43;;;8.10;;
61393;SDS011;48555;50.952;-0.120;2023-05-07T09:17:33;9.95;;;8.38;;
61393;SDS011;48555;50.952;-0.120;2023-05-07T09:20:03;9.45;;;7.63;;
61393;SDS011;48555;50.952;-0.120;2023-05-07T09:22:31;9.90;;;7.97;;
61393;SDS011;48555;50.952;-0.120;2023-05-07T09:24:57;9.82;;;7.63;;
61393;SDS011;48555;50.952;-0.120;2023-05-07T09:27:23;10.00;;;7.25;;
61393;SDS011;48555;50.952;-0.120;2023-05-07T09:29:48;10.07;;;7.55;;
61393;SDS011;48555;50.952;-0.120;2023-05-07T09:32:13;8.40;;;6.60;;
61393;SDS011;48555;50.952;-0.120;2023-05-07T09:34:40;8.30;;;6.22;;
61393;SDS011;48555;50.952;-0.120;2023-05-07T09:37:06;8.65;;;6.18;;
61393;SDS011;48555;50.952;-0.120;2023-05-07T09:39:39;8.45;;;6.38;;
61393;SDS011;48555;50.952;-0.120;2023-05-07T09:42:11;8.38;;;6.13;;
61393;SDS011;48555;50.952;-0.120;2023-05-07T09:44:37;7.93;;;6.35;;
61393;SDS011;48555;50.952;-0.120;2023-05-07T09:47:04;8.30;;;5.90;;
61393;SDS011;48555;50.952;-0.120;2023-05-07T09:49:33;8.07;;;6.78;;
61393;SDS011;48555;50.952;-0.120;2023-05-07T09:52:01;8.32;;;6.70;;
61393;SDS011;48555;50.952;-0.120;2023-05-07T09:54:27;7.57;;;6.15;;
61393;SDS011;48555;50.952;-0.120;2023-05-07T09:56:56;7.43;;;5.35;;
61393;SDS011;48555;50.952;-0.120;2023-05-07T09:59:22;7.65;;;5.65;;
61393;SDS011;48555;50.952;-0.120;2023-05-07T10:01:47;7.40;;;4.97;;
61393;SDS011;48555;50.952;-0.120;2023-05-07T10:04:14;8.20;;;5.40;;
61393;SDS011;48555;50.952;-0.120;2023-05-07T10:06:40;7.15;;;5.20;;
61393;SDS011;48555;50.952;-0.120;2023-05-07T10:09:07;7.28;;;4.78;;
61393;SDS011;48555;50.952;-0.120;2023-05-07T10:11:33;6.97;;;5.00;;
61393;SDS011;48555;50.952;-0.120;2023-05-07T10:14:00;6.60;;;4.78;;
61393;SDS011;48555;50.952;-0.120;2023-05-07T10:16:27;7.75;;;4.88;;
61393;SDS011;48555;50.952;-0.120;2023-05-07T10:18:56;8.07;;;4.85;;
61393;SDS011;48555;50.952;-0.120;2023-05-07T10:21:23;6.38;;;4.63;;
61393;SDS011;48555;50.952;-0.120;2023-05-07T10:23:49;7.15;;;4.63;;
61393;SDS011;48555;50.952;-0.120;2023-05-07T10:26:17;7.22;;;4.85;;
61393;SDS011;48555;50.952;-0.120;2023-05-07T10:28:46;8.10;;;4.55;;
61393;SDS011;48555;50.952;-0.120;2023-05-07T10:34:13;7.68;;;5.13;;
61393;SDS011;48555;50.952;-0.120;2023-05-07T10:36:42;9.38;;;5.78;;
61393;SDS011;48555;50.952;-0.120;2023-05-07T10:39:08;8.23;;;6.13;;
61393;SDS011;48555;50.952;-0.120;2023-05-07T10:41:34;8.02;;;5.65;;
61393;SDS011;48555;50.952;-0.120;2023-05-07T10:44:00;7.80;;;5.88;;
61393;SDS011;48555;50.952;-0.120;2023-05-07T10:46:27;7.75;;;5.28;;
61393;SDS011;48555;50.952;-0.120;2023-05-07T10:51:33;7.20;;;4.63;;
61393;SDS011;48555;50.952;-0.120;2023-05-07T10:56:34;6.50;;;4.32;;
61393;SDS011;48555;50.952;-0.120;2023-05-07T11:01:54;6.68;;;4.50;;
61393;SDS011;48555;50.952;-0.120;2023-05-07T11:04:20;6.25;;;4.40;;
61393;SDS011;48555;50.952;-0.120;2023-05-07T11:15:04;6.88;;;4.75;;
61393;SDS011;48555;50.952;-0.120;2023-05-07T11:17:54;6.45;;;3.97;;
61393;SDS011;48555;50.952;-0.120;2023-05-07T11:20:43;6.60;;;4.30;;
61393;SDS011;48555;50.952;-0.120;2023-05-07T11:23:57;6.55;;;4.38;;
61393;SDS011;48555;50.952;-0.120;2023-05-07T11:25:59;7.03;;;4.38;;
61393;SDS011;48555;50.952;-0.120;2023-05-07T11:28:26;7.32;;;4.72;;
61393;SDS011;48555;50.952;-0.120;2023-05-07T11:30:52;8.13;;;4.53;;
61393;SDS011;48555;50.952;-0.120;2023-05-07T11:33:18;7.78;;;5.20;;
61393;SDS011;48555;50.952;-0.120;2023-05-07T11:35:44;7.28;;;4.78;;
61393;SDS011;48555;50.952;-0.120;2023-05-07T11:38:11;8.77;;;6.10;;
61393;SDS011;48555;50.952;-0.120;2023-05-07T11:40:50;8.45;;;6.30;;
61393;SDS011;48555;50.952;-0.120;2023-05-07T11:43:16;8.40;;;5.65;;
61393;SDS011;48555;50.952;-0.120;2023-05-07T11:45:42;9.63;;;5.53;;
61393;SDS011;48555;50.952;-0.120;2023-05-07T11:48:07;8.70;;;5.28;;
61393;SDS011;48555;50.952;-0.120;2023-05-07T11:50:33;7.65;;;5.35;;
61393;SDS011;48555;50.952;-0.120;2023-05-07T11:52:58;7.32;;;4.38;;
61393;SDS011;48555;50.952;-0.120;2023-05-07T11:55:24;7.97;;;5.07;;
61393;SDS011;48555;50.952;-0.120;2023-05-07T11:57:50;7.13;;;4.78;;
61393;SDS011;48555;50.952;-0.120;2023-05-07T12:00:16;8.85;;;4.97;;
61393;SDS011;48555;50.952;-0.120;2023-05-07T12:02:42;7.38;;;4.70;;
61393;SDS011;48555;50.952;-0.120;2023-05-07T12:05:07;8.02;;;4.97;;
61393;SDS011;48555;50.952;-0.120;2023-05-07T12:07:33;7.30;;;5.22;;
61393;SDS011;48555;50.952;-0.120;2023-05-07T12:09:59;7.68;;;4.45;;
61393;SDS011;48555;50.952;-0.120;2023-05-07T12:12:28;8.45;;;4.90;;
61393;SDS011;48555;50.952;-0.120;2023-05-07T12:14:54;7.20;;;4.20;;
61393;SDS011;48555;50.952;-0.120;2023-05-07T12:17:19;7.47;;;4.80;;
61393;SDS011;48555;50.952;-0.120;2023-05-07T12:19:45;7.38;;;4.97;;
61393;SDS011;48555;50.952;-0.120;2023-05-07T12:22:11;6.68;;;4.28;;
61393;SDS011;48555;50.952;-0.120;2023-05-07T12:24:50;6.63;;;4.10;;
61393;SDS011;48555;50.952;-0.120;2023-05-07T12:27:22;7.20;;;4.07;;
61393;SDS011;48555;50.952;-0.120;2023-05-07T12:29:48;6.93;;;4.38;;
61393;SDS011;48555;50.952;-0.120;2023-05-07T12:32:15;6.35;;;3.72;;
61393;SDS011;48555;50.952;-0.120;2023-05-07T12:34:42;6.20;;;3.72;;
61393;SDS011;48555;50.952;-0.120;2023-05-07T12:37:07;6.50;;;3.70;;
61393;SDS011;48555;50.952;-0.120;2023-05-07T12:39:33;7.97;;;4.00;;
61393;SDS011;48555;50.952;-0.120;2023-05-07T12:41:58;6.20;;;3.88;;
61393;SDS011;48555;50.952;-0.120;2023-05-07T12:44:31;5.60;;;3.25;;
61393;SDS011;48555;50.952;-0.120;2023-05-07T12:46:58;6.47;;;3.90;;
61393;SDS011;48555;50.952;-0.120;2023-05-07T12:49:27;6.10;;;3.60;;
61393;SDS011;48555;50.952;-0.120;2023-05-07T12:51:54;6.22;;;3.53;;
61393;SDS011;48555;50.952;-0.120;2023-05-07T12:54:30;5.22;;;3.15;;
61393;SDS011;48555;50.952;-0.120;2023-05-07T12:57:09;6.35;;;3.70;;
61393;SDS011;48555;50.952;-0.120;2023-05-07T12:59:36;5.20;;;3.45;;
61393;SDS011;48555;50.952;-0.120;2023-05-07T13:02:02;5.60;;;3.42;;
61393;SDS011;48555;50.952;-0.120;2023-05-07T13:04:27;5.55;;;3.90;;
61393;SDS011;48555;50.952;-0.120;2023-05-07T13:06:53;5.07;;;3.40;;
61393;SDS011;48555;50.952;-0.120;2023-05-07T13:09:18;5.43;;;3.75;;
61393;SDS011;48555;50.952;-0.120;2023-05-07T13:11:44;5.18;;;3.63;;
61393;SDS011;48555;50.952;-0.120;2023-05-07T13:14:09;7.30;;;3.72;;
61393;SDS011;48555;50.952;-0.120;2023-05-07T13:16:34;6.47;;;3.60;;
61393;SDS011;48555;50.952;-0.120;2023-05-07T13:19:00;5.88;;;3.60;;
61393;SDS011;48555;50.952;-0.120;2023-05-07T13:21:25;5.93;;;3.97;;
61393;SDS011;48555;50.952;-0.120;2023-05-07T13:23:51;5.75;;;3.33;;
61393;SDS011;48555;50.952;-0.120;2023-05-07T13:26:17;5.53;;;3.35;;
61393;SDS011;48555;50.952;-0.120;2023-05-07T13:28:42;6.07;;;3.47;;
61393;SDS011;48555;50.952;-0.120;2023-05-07T13:31:08;4.57;;;3.20;;
61393;SDS011;48555;50.952;-0.120;2023-05-07T13:33:34;5.55;;;3.15;;
61393;SDS011;48555;50.952;-0.120;2023-05-07T13:35:59;5.18;;;3.40;;
61393;SDS011;48555;50.952;-0.120;2023-05-07T13:38:25;4.70;;;3.00;;
61393;SDS011;48555;50.952;-0.120;2023-05-07T13:40:51;5.60;;;3.20;;
61393;SDS011;48555;50.952;-0.120;2023-05-07T13:43:16;5.38;;;3.00;;
61393;SDS011;48555;50.952;-0.120;2023-05-07T13:45:43;4.32;;;2.85;;
61393;SDS011;48555;50.952;-0.120;2023-05-07T13:48:09;5.82;;;3.42;;
61393;SDS011;48555;50.952;-0.120;2023-05-07T13:50:34;5.55;;;3.20;;
61393;SDS011;48555;50.952;-0.120;2023-05-07T13:53:00;4.53;;;2.92;;
61393;SDS011;48555;50.952;-0.120;2023-05-07T13:55:28;5.07;;;2.90;;
61393;SDS011;48555;50.952;-0.120;2023-05-07T13:57:57;5.80;;;2.75;;
61393;SDS011;48555;50.952;-0.120;2023-05-07T14:00:26;4.28;;;2.65;;
61393;SDS011;48555;50.952;-0.120;2023-05-07T14:02:53;7.50;;;3.13;;
61393;SDS011;48555;50.952;-0.120;2023-05-07T14:05:19;3.55;;;2.55;;
61393;SDS011;48555;50.952;-0.120;2023-05-07T14:07:45;5.32;;;3.13;;
61393;SDS011;48555;50.952;-0.120;2023-05-07T14:10:10;5.03;;;2.92;;
61393;SDS011;48555;50.952;-0.120;2023-05-07T14:12:36;4.40;;;2.97;;
61393;SDS011;48555;50.952;-0.120;2023-05-07T14:15:02;4.63;;;3.30;;
61393;SDS011;48555;50.952;-0.120;2023-05-07T14:17:27;5.13;;;2.70;;
61393;SDS011;48555;50.952;-0.120;2023-05-07T14:19:53;5.50;;;2.92;;
61393;SDS011;48555;50.952;-0.120;2023-05-07T14:22:19;4.20;;;2.85;;
61393;SDS011;48555;50.952;-0.120;2023-05-07T14:24:46;4.22;;;2.78;;
61393;SDS011;48555;50.952;-0.120;2023-05-07T14:27:11;3.55;;;2.45;;
61393;SDS011;48555;50.952;-0.120;2023-05-07T14:29:36;3.67;;;2.70;;
61393;SDS011;48555;50.952;-0.120;2023-05-07T14:32:02;4.93;;;2.80;;
61393;SDS011;48555;50.952;-0.120;2023-05-07T14:34:28;3.42;;;2.50;;
61393;SDS011;48555;50.952;-0.120;2023-05-07T14:36:53;4.18;;;2.40;;
61393;SDS011;48555;50.952;-0.120;2023-05-07T14:39:19;4.63;;;2.67;;
61393;SDS011;48555;50.952;-0.120;2023-05-07T14:41:44;3.08;;;2.30;;